This is the latest recevied weather packets stored in our database for station/object iz1wiy-2. If no packets are shown the sender has not sent any weather packets the latest 10 day(s).
| Time | Temp. | Humidity | Pressure | Rain* | Wind** | Luminosity | Snow |
|---|---|---|---|---|---|---|---|
| 1777634103 | 18.33° C | 54% | 1025 hPa | 0 mm | - | - | - |
| 1777633803 | 18.33° C | 55% | 1025 hPa | 0 mm | - | - | - |
| 1777633503 | 18.33° C | 57% | 1025.1 hPa | 0 mm | - | - | - |
| 1777633203 | 18.33° C | 57% | 1025 hPa | 0 mm | - | - | - |
| 1777632903 | 18.33° C | 54% | 1025 hPa | 0 mm | - | - | - |
| 1777632604 | 18.33° C | 54% | 1025 hPa | 0 mm | - | - | - |
| 1777632003 | 18.33° C | 49% | 1025 hPa | 0 mm | - | - | - |
| 1777631703 | 18.33° C | 47% | 1025 hPa | 0 mm | - | - | - |
| 1777631403 | 18.89° C | 47% | 1025 hPa | 0 mm | - | - | - |
| 1777631103 | 18.89° C | 46% | 1025 hPa | 0 mm | - | - | - |
| 1777630803 | 18.89° C | 49% | 1025.1 hPa | 0 mm | - | - | - |
| 1777630503 | 20.56° C | 36% | 1025 hPa | 0 mm | - | - | - |
| 1777630203 | 20.56° C | 37% | 1025.1 hPa | 0 mm | - | - | - |
| 1777629903 | 21.11° C | 37% | 1025.1 hPa | 0 mm | - | - | - |
| 1777629603 | 20.56° C | 37% | 1025.1 hPa | 0 mm | - | - | - |
| 1777629003 | 20.56° C | 36% | 1025.1 hPa | 0 mm | - | - | - |
| 1777628403 | 20.56° C | 32% | 1025.2 hPa | 0 mm | - | - | - |
| 1777628103 | 20° C | 33% | 1025.2 hPa | 0 mm | - | - | - |
| 1777627803 | 20° C | 32% | 1025.1 hPa | 0 mm | - | - | - |
| 1777627503 | 20° C | 32% | 1025.2 hPa | 0 mm | - | - | - |
| 1777627203 | 20° C | 32% | 1025.2 hPa | 0 mm | - | - | - |
| 1777626903 | 20° C | 33% | 1025.2 hPa | 0 mm | - | - | - |
| 1777626603 | 20° C | 32% | 1025.1 hPa | 0 mm | - | - | - |
| 1777626303 | 20° C | 33% | 1025.2 hPa | 0 mm | - | - | - |
| 1777626004 | 19.44° C | 33% | 1025.2 hPa | 0 mm | - | - | - |
* Rain latest hour (hover to see other rain measurements)
** Current wind speed in m/s (hover to see current wind gust speed)